createdAt,value
2023-01-01T00:01:21.696Z,15.40
2023-01-01T00:03:52.404Z,15.43
2023-01-01T00:06:18.886Z,15.33
2023-01-01T00:08:45.466Z,15.33
2023-01-01T00:11:11.843Z,15.36
2023-01-01T00:13:40.226Z,15.34
2023-01-01T00:16:14.526Z,15.28
2023-01-01T00:18:41.258Z,15.21
2023-01-01T00:21:13.411Z,15.15
2023-01-01T00:23:39.965Z,15.19
2023-01-01T00:26:17.429Z,15.20
2023-01-01T00:28:44.865Z,15.11
2023-01-01T00:31:17.141Z,15.14
2023-01-01T00:33:44.490Z,15.13
2023-01-01T00:36:13.301Z,15.09
2023-01-01T00:38:40.494Z,15.00
2023-01-01T00:41:07.061Z,15.07
2023-01-01T00:43:33.682Z,15.02
2023-01-01T00:46:00.151Z,15.01
2023-01-01T00:48:26.744Z,14.94
2023-01-01T00:50:53.491Z,14.95
2023-01-01T00:53:20.733Z,14.95
2023-01-01T00:55:48.671Z,15.03
2023-01-01T00:58:16.524Z,14.99
2023-01-01T01:00:43.350Z,15.02
2023-01-01T01:03:27.934Z,15.02
2023-01-01T01:06:03.046Z,15.01
2023-01-01T01:08:31.551Z,15.07
2023-01-01T01:11:24.856Z,15.10
2023-01-01T01:13:57.473Z,14.99
2023-01-01T01:16:31.895Z,14.99
2023-01-01T01:19:01.144Z,15.02
2023-01-01T01:21:30.288Z,14.95
2023-01-01T01:24:01.724Z,14.90
2023-01-01T01:26:31.495Z,14.96
2023-01-01T01:28:59.364Z,14.93
2023-01-01T01:31:28.839Z,14.87
2023-01-01T01:33:55.282Z,14.92
2023-01-01T01:36:21.821Z,14.93
2023-01-01T01:38:48.481Z,14.81
2023-01-01T01:41:27.468Z,14.85
2023-01-01T01:44:03.170Z,14.78
2023-01-01T01:46:42.942Z,14.83
2023-01-01T01:49:27.368Z,14.70
2023-01-01T01:51:54.776Z,14.59
2023-01-01T01:54:24.025Z,14.55
2023-01-01T01:57:12.608Z,14.62
2023-01-01T01:59:43.779Z,14.59
2023-01-01T02:02:18.139Z,14.56
2023-01-01T02:04:44.768Z,14.55
2023-01-01T02:07:14.029Z,14.53
2023-01-01T02:09:40.449Z,14.51
2023-01-01T02:12:06.875Z,14.56
2023-01-01T02:14:33.585Z,14.51
2023-01-01T02:17:09.382Z,14.52
2023-01-01T02:20:06.942Z,14.41
2023-01-01T02:22:46.197Z,14.45
2023-01-01T02:25:40.220Z,14.44
2023-01-01T02:28:24.208Z,14.34
2023-01-01T02:30:53.041Z,14.39
2023-01-01T02:33:25.579Z,14.36
2023-01-01T02:35:57.058Z,14.32
2023-01-01T02:38:29.029Z,14.38
2023-01-01T02:41:00.728Z,14.34
2023-01-01T02:43:27.097Z,14.28
2023-01-01T02:45:54.797Z,14.15
2023-01-01T02:48:43.879Z,14.23
2023-01-01T02:51:23.370Z,14.19
2023-01-01T02:54:04.487Z,14.12
2023-01-01T02:56:38.160Z,14.12
2023-01-01T02:59:48.213Z,14.17
2023-01-01T03:02:30.860Z,14.15
2023-01-01T03:05:16.029Z,14.12
2023-01-01T03:07:45.428Z,14.14
2023-01-01T03:10:19.002Z,14.08
2023-01-01T03:13:00.152Z,14.07
2023-01-01T03:16:03.458Z,14.08
2023-01-01T03:18:40.954Z,14.03
2023-01-01T03:23:46.029Z,14.01
2023-01-01T03:26:16.119Z,13.92
2023-01-01T03:29:04.974Z,13.84
2023-01-01T03:31:33.164Z,13.86
2023-01-01T03:34:06.461Z,13.86
2023-01-01T03:36:39.113Z,13.89
2023-01-01T03:39:10.622Z,13.87
2023-01-01T03:42:00.751Z,13.90
2023-01-01T03:44:33.194Z,14.00
2023-01-01T03:47:00.361Z,13.98
2023-01-01T03:49:27.470Z,13.95
2023-01-01T03:52:17.104Z,13.97
2023-01-01T03:54:59.101Z,13.95
2023-01-01T03:57:48.202Z,14.07
2023-01-01T04:00:20.225Z,14.06
2023-01-01T04:03:12.446Z,14.04
2023-01-01T04:05:41.356Z,14.09
2023-01-01T04:08:08.466Z,14.15
2023-01-01T04:10:39.384Z,14.11
2023-01-01T04:13:06.700Z,14.07
2023-01-01T04:15:33.864Z,14.14
2023-01-01T04:18:00.222Z,14.13
2023-01-01T04:20:26.698Z,14.06
2023-01-01T04:22:57.522Z,13.98
2023-01-01T04:25:24.221Z,13.98
2023-01-01T04:27:50.623Z,14.06
2023-01-01T04:30:17.609Z,14.04
2023-01-01T04:32:44.129Z,13.96
2023-01-01T04:35:14.836Z,13.96
2023-01-01T04:37:43.543Z,13.87
2023-01-01T04:40:12.002Z,13.89
2023-01-01T04:42:38.574Z,13.90
2023-01-01T04:45:05.420Z,13.83
2023-01-01T04:47:31.856Z,13.83
2023-01-01T04:49:58.191Z,13.84
2023-01-01T04:52:24.576Z,13.74
2023-01-01T04:54:50.909Z,13.73
2023-01-01T04:57:17.275Z,13.74
2023-01-01T04:59:43.892Z,13.75
2023-01-01T05:02:10.399Z,13.75
2023-01-01T05:04:36.787Z,13.74
2023-01-01T05:07:03.153Z,13.76
2023-01-01T05:09:29.515Z,13.81
2023-01-01T05:11:56.092Z,13.83
2023-01-01T05:14:22.679Z,13.82
2023-01-01T05:16:49.915Z,13.76
2023-01-01T05:19:16.281Z,13.67
2023-01-01T05:21:42.634Z,13.71
2023-01-01T05:24:10.435Z,13.68
2023-01-01T05:26:42.482Z,13.61
2023-01-01T05:29:15.659Z,13.70
2023-01-01T05:31:43.250Z,13.74
2023-01-01T05:34:09.850Z,13.75
2023-01-01T05:36:38.985Z,13.74
2023-01-01T05:39:07.284Z,13.61
2023-01-01T05:41:36.229Z,13.68
2023-01-01T05:44:06.609Z,13.65
2023-01-01T05:46:33.357Z,13.57
2023-01-01T05:49:00.001Z,13.47
2023-01-01T05:51:28.999Z,13.31
2023-01-01T05:53:56.175Z,13.38
2023-01-01T05:56:23.465Z,13.34
2023-01-01T05:58:49.949Z,13.24
2023-01-01T06:01:28.183Z,13.20
2023-01-01T06:03:56.358Z,13.21
2023-01-01T06:06:28.920Z,13.11
2023-01-01T06:08:57.991Z,13.14
2023-01-01T06:11:24.502Z,13.15
2023-01-01T06:13:55.899Z,13.18
2023-01-01T06:16:22.933Z,13.11
2023-01-01T06:18:49.853Z,13.00
2023-01-01T06:21:21.610Z,13.09
2023-01-01T06:23:48.337Z,13.10
2023-01-01T06:26:17.618Z,13.07
2023-01-01T06:28:44.813Z,13.02
2023-01-01T06:31:13.594Z,13.13
2023-01-01T06:33:40.258Z,13.14
2023-01-01T06:36:08.870Z,13.12
2023-01-01T06:38:37.230Z,13.12
2023-01-01T06:41:06.139Z,13.16
2023-01-01T06:43:33.967Z,13.10
2023-01-01T06:46:04.953Z,13.19
2023-01-01T06:48:33.174Z,13.21
2023-01-01T06:51:09.258Z,13.25
2023-01-01T06:53:35.977Z,13.34
2023-01-01T06:56:02.337Z,13.45
2023-01-01T06:58:28.921Z,13.58
2023-01-01T07:01:08.126Z,13.54
2023-01-01T07:03:36.476Z,13.45
2023-01-01T07:06:03.313Z,13.35
2023-01-01T07:08:29.773Z,13.37
2023-01-01T07:10:57.472Z,13.53
2023-01-01T07:13:24.820Z,13.45
2023-01-01T07:15:52.326Z,13.37
2023-01-01T07:18:20.238Z,13.32
2023-01-01T07:20:52.554Z,13.36
2023-01-01T07:23:19.148Z,13.38
2023-01-01T07:25:45.505Z,13.34
2023-01-01T07:28:13.157Z,13.44
2023-01-01T07:30:39.554Z,13.48
2023-01-01T07:33:06.014Z,13.54
2023-01-01T07:35:32.387Z,13.46
2023-01-01T07:37:58.762Z,13.36
2023-01-01T07:40:25.105Z,13.32
2023-01-01T07:42:51.508Z,13.21
2023-01-01T07:45:17.845Z,12.90
2023-01-01T07:47:54.781Z,12.76
2023-01-01T07:50:22.414Z,12.66
2023-01-01T07:52:48.847Z,12.58
2023-01-01T07:55:17.577Z,12.60
2023-01-01T07:57:44.805Z,12.59
2023-01-01T08:00:14.454Z,12.52
2023-01-01T08:02:40.970Z,12.51
2023-01-01T08:05:07.861Z,12.68
2023-01-01T08:07:38.263Z,12.58
2023-01-01T08:10:06.323Z,12.43
2023-01-01T08:12:33.812Z,12.43
2023-01-01T08:15:00.345Z,12.59
2023-01-01T08:17:26.749Z,12.72
2023-01-01T08:19:53.142Z,12.90
2023-01-01T08:22:19.552Z,13.23
2023-01-01T08:24:45.898Z,13.51
2023-01-01T08:27:13.779Z,13.73
2023-01-01T08:29:40.210Z,13.99
2023-01-01T08:32:06.568Z,14.19
2023-01-01T08:34:32.911Z,14.41
2023-01-01T08:36:59.948Z,14.42
2023-01-01T08:39:26.451Z,14.54
2023-01-01T08:41:52.872Z,14.76
2023-01-01T08:44:19.675Z,14.87
2023-01-01T08:46:46.181Z,15.01
2023-01-01T08:49:12.539Z,15.01
2023-01-01T08:51:38.905Z,15.23
2023-01-01T08:54:05.358Z,15.21
2023-01-01T08:56:31.747Z,15.25
2023-01-01T08:59:03.874Z,15.24
2023-01-01T09:01:31.048Z,15.16
2023-01-01T09:03:57.465Z,15.14
2023-01-01T09:06:23.850Z,15.27
2023-01-01T09:08:50.264Z,15.20
2023-01-01T09:11:24.168Z,15.26
2023-01-01T09:13:50.573Z,15.10
2023-01-01T09:16:17.020Z,15.14
2023-01-01T09:18:43.450Z,15.13
2023-01-01T09:21:10.164Z,15.18
2023-01-01T09:23:36.880Z,15.13
2023-01-01T09:26:04.987Z,15.16
2023-01-01T09:28:31.554Z,15.14
2023-01-01T09:30:57.943Z,15.15
2023-01-01T09:33:24.422Z,15.19
2023-01-01T09:35:50.826Z,15.21
2023-01-01T09:38:17.178Z,15.14
2023-01-01T09:41:00.249Z,15.15
2023-01-01T09:43:48.636Z,15.15
2023-01-01T09:46:15.248Z,15.25
2023-01-01T09:48:50.848Z,15.32
2023-01-01T09:51:19.897Z,15.37
2023-01-01T09:54:01.911Z,15.48
2023-01-01T09:56:30.790Z,15.50
2023-01-01T09:58:59.305Z,15.51
2023-01-01T10:02:02.698Z,15.58
2023-01-01T10:04:59.632Z,15.66
2023-01-01T10:07:32.096Z,15.66
2023-01-01T10:10:28.022Z,15.75
2023-01-01T10:13:04.463Z,15.82
2023-01-01T10:15:34.416Z,15.82
2023-01-01T10:18:06.580Z,15.81
2023-01-01T10:20:44.148Z,15.85
2023-01-01T10:23:25.097Z,15.88
2023-01-01T10:25:52.223Z,15.86
2023-01-01T10:28:35.204Z,15.87
2023-01-01T10:31:40.619Z,15.80
2023-01-01T10:34:26.561Z,15.83
2023-01-01T10:36:54.810Z,15.76
2023-01-01T10:39:21.601Z,15.78
2023-01-01T10:41:48.589Z,15.75
2023-01-01T10:44:18.017Z,15.72
2023-01-01T10:46:49.037Z,15.72
2023-01-01T10:49:16.450Z,15.81
2023-01-01T10:51:47.139Z,15.94
2023-01-01T10:54:32.183Z,15.98
2023-01-01T10:56:59.308Z,16.07
2023-01-01T10:59:38.780Z,16.06
2023-01-01T11:02:25.715Z,16.04
2023-01-01T11:05:16.286Z,16.15
2023-01-01T11:07:46.546Z,16.22
2023-01-01T11:10:22.513Z,16.42
2023-01-01T11:13:06.692Z,16.40
2023-01-01T11:15:39.435Z,16.45
2023-01-01T11:18:10.676Z,16.54
2023-01-01T11:20:37.136Z,16.55
2023-01-01T11:23:38.407Z,16.64
2023-01-01T11:26:13.756Z,16.69
2023-01-01T11:28:41.369Z,16.87
2023-01-01T11:31:15.242Z,16.94
2023-01-01T11:33:55.862Z,16.99
2023-01-01T11:36:25.005Z,16.85
2023-01-01T11:39:06.695Z,16.72
2023-01-01T11:41:44.772Z,16.69
2023-01-01T11:44:13.604Z,16.69
2023-01-01T11:46:40.158Z,16.53
2023-01-01T11:49:15.154Z,16.56
2023-01-01T11:51:41.937Z,16.41
2023-01-01T11:54:23.590Z,16.37
2023-01-01T11:56:54.218Z,16.45
2023-01-01T11:59:26.881Z,16.47
2023-01-01T12:02:04.173Z,16.43
2023-01-01T12:04:42.096Z,16.45
2023-01-01T12:07:13.756Z,16.41
2023-01-01T12:09:43.466Z,16.34
2023-01-01T12:12:16.323Z,16.32
2023-01-01T12:15:05.441Z,16.25
2023-01-01T12:17:40.387Z,16.21
2023-01-01T12:20:16.399Z,16.24
2023-01-01T12:22:42.794Z,16.23
2023-01-01T12:25:14.999Z,16.17
2023-01-01T12:28:00.133Z,16.12
2023-01-01T12:30:51.691Z,16.09
2023-01-01T12:33:48.804Z,16.10
2023-01-01T12:36:45.350Z,16.09
2023-01-01T12:39:30.478Z,16.03
2023-01-01T12:42:37.724Z,16.00
2023-01-01T12:45:31.878Z,15.90
2023-01-01T12:48:19.699Z,15.93
2023-01-01T12:51:05.030Z,15.85
2023-01-01T12:53:50.498Z,15.77
2023-01-01T12:56:49.416Z,15.81
2023-01-01T12:59:20.033Z,15.80
2023-01-01T13:01:47.623Z,15.67
2023-01-01T13:04:18.100Z,15.74
2023-01-01T13:06:55.715Z,15.70
2023-01-01T13:09:25.795Z,15.64
2023-01-01T13:11:58.802Z,15.75
2023-01-01T13:14:25.319Z,15.63
2023-01-01T13:16:53.878Z,15.59
2023-01-01T13:19:40.806Z,15.52
2023-01-01T13:22:25.390Z,15.51
2023-01-01T13:25:22.993Z,15.41
2023-01-01T13:28:00.303Z,15.41
2023-01-01T13:30:50.193Z,15.34
2023-01-01T13:33:29.598Z,15.34
2023-01-01T13:36:18.841Z,15.30
2023-01-01T13:38:55.305Z,15.25
2023-01-01T13:41:37.076Z,15.16
2023-01-01T13:44:03.426Z,15.16
2023-01-01T13:46:41.827Z,15.15
2023-01-01T13:49:32.211Z,15.19
2023-01-01T13:52:27.517Z,15.12
2023-01-01T13:55:05.892Z,15.13
2023-01-01T13:57:52.771Z,15.11
2023-01-01T14:00:33.739Z,15.12
2023-01-01T14:03:14.226Z,14.99
2023-01-01T14:05:53.559Z,14.97
2023-01-01T14:08:30.605Z,14.94
2023-01-01T14:10:58.075Z,14.94
2023-01-01T14:13:29.937Z,14.87
2023-01-01T14:16:08.798Z,14.81
2023-01-01T14:18:49.340Z,14.84
2023-01-01T14:21:29.088Z,14.76
2023-01-01T14:24:07.538Z,14.72
2023-01-01T14:26:37.951Z,14.68
2023-01-01T14:29:10.138Z,14.68
2023-01-01T14:31:43.013Z,14.67
2023-01-01T14:34:29.972Z,14.70
2023-01-01T14:36:59.169Z,14.69
2023-01-01T14:39:27.929Z,14.59
2023-01-01T14:41:58.843Z,14.52
2023-01-01T14:44:32.661Z,14.48
2023-01-01T14:46:59.147Z,14.41
2023-01-01T14:49:33.194Z,14.39
2023-01-01T14:52:23.389Z,14.31
2023-01-01T14:54:51.036Z,14.26
2023-01-01T14:57:24.245Z,14.16
2023-01-01T14:59:54.687Z,14.11
2023-01-01T15:02:26.527Z,14.10
2023-01-01T15:04:52.984Z,14.03
2023-01-01T15:07:24.901Z,14.03
2023-01-01T15:09:56.188Z,13.93
2023-01-01T15:12:23.753Z,13.85
2023-01-01T15:14:52.335Z,13.84
2023-01-01T15:17:21.503Z,13.77
2023-01-01T15:20:01.698Z,13.84
2023-01-01T15:22:31.837Z,13.83
2023-01-01T15:25:02.503Z,13.77
2023-01-01T15:27:31.778Z,13.73
2023-01-01T15:29:58.823Z,13.72
2023-01-01T15:32:31.081Z,13.69
2023-01-01T15:35:03.215Z,13.76
2023-01-01T15:37:37.034Z,13.78
2023-01-01T15:40:26.805Z,13.83
2023-01-01T15:42:59.010Z,13.85
2023-01-01T15:45:25.312Z,13.90
2023-01-01T15:47:57.168Z,13.89
2023-01-01T15:50:30.151Z,13.88
2023-01-01T15:53:01.795Z,13.85
2023-01-01T15:55:32.974Z,13.91
2023-01-01T15:57:59.554Z,13.90
2023-01-01T16:00:31.453Z,13.98
2023-01-01T16:03:01.965Z,14.04
2023-01-01T16:05:28.430Z,13.99
2023-01-01T16:08:00.805Z,14.00
2023-01-01T16:10:27.459Z,14.04
2023-01-01T16:12:53.836Z,14.03
2023-01-01T16:15:20.309Z,14.04
2023-01-01T16:17:46.719Z,14.00
2023-01-01T16:20:17.504Z,14.06
2023-01-01T16:22:44.779Z,14.03
2023-01-01T16:25:23.777Z,13.98
2023-01-01T16:27:50.149Z,14.00
2023-01-01T16:30:16.670Z,13.94
2023-01-01T16:32:43.032Z,13.89
2023-01-01T16:35:13.549Z,13.82
2023-01-01T16:37:40.427Z,13.70
2023-01-01T16:40:08.093Z,13.68
2023-01-01T16:42:34.753Z,13.63
2023-01-01T16:45:01.330Z,13.46
2023-01-01T16:47:27.704Z,13.34
2023-01-01T16:49:54.084Z,13.34
2023-01-01T16:52:20.475Z,13.24
2023-01-01T16:54:46.803Z,13.21
2023-01-01T16:57:13.283Z,13.15
2023-01-01T16:59:39.787Z,13.16
2023-01-01T17:02:08.707Z,13.10
2023-01-01T17:04:36.528Z,13.11
2023-01-01T17:07:02.900Z,13.09
2023-01-01T17:09:29.266Z,13.05
2023-01-01T17:11:55.626Z,13.00
2023-01-01T17:14:22.119Z,13.02
2023-01-01T17:16:48.616Z,12.96
2023-01-01T17:19:16.647Z,12.96
2023-01-01T17:21:45.424Z,12.89
2023-01-01T17:24:11.865Z,12.93
2023-01-01T17:26:38.223Z,12.83
2023-01-01T17:29:06.773Z,12.76
2023-01-01T17:31:33.358Z,12.67
2023-01-01T17:33:59.760Z,12.69
2023-01-01T17:36:27.517Z,12.74
2023-01-01T17:38:54.089Z,12.73
2023-01-01T17:41:20.433Z,12.68
2023-01-01T17:43:50.165Z,12.68
2023-01-01T17:46:21.643Z,12.70
2023-01-01T17:48:48.802Z,12.71
2023-01-01T17:51:16.599Z,12.84
2023-01-01T17:53:43.835Z,12.81
2023-01-01T17:56:13.879Z,12.87
2023-01-01T17:58:41.892Z,12.83
2023-01-01T18:01:11.107Z,12.78
2023-01-01T18:03:38.296Z,12.77
2023-01-01T18:06:04.981Z,12.73
2023-01-01T18:08:32.988Z,12.83
2023-01-01T18:10:59.973Z,12.73
2023-01-01T18:13:27.272Z,12.64
2023-01-01T18:15:53.768Z,12.63
2023-01-01T18:18:20.176Z,12.59
2023-01-01T18:20:46.526Z,12.53
2023-01-01T18:23:12.883Z,12.46
2023-01-01T18:25:39.278Z,12.49
2023-01-01T18:28:06.928Z,12.47
2023-01-01T18:30:33.457Z,12.43
2023-01-01T18:33:00.092Z,12.41
2023-01-01T18:35:26.449Z,12.38
2023-01-01T18:37:53.038Z,12.38
2023-01-01T18:40:19.608Z,12.37
2023-01-01T18:42:50.408Z,12.29
2023-01-01T18:45:19.821Z,12.26
2023-01-01T18:47:46.736Z,12.21
2023-01-01T18:50:29.601Z,12.21
2023-01-01T18:53:02.976Z,12.19
2023-01-01T18:55:30.731Z,12.16
2023-01-01T18:58:14.099Z,12.32
2023-01-01T19:00:40.551Z,12.36
2023-01-01T19:03:17.473Z,12.50
2023-01-01T19:05:44.991Z,12.55
2023-01-01T19:08:19.123Z,12.63
2023-01-01T19:11:00.400Z,12.74
2023-01-01T19:13:32.962Z,12.75
2023-01-01T19:16:21.048Z,12.84
2023-01-01T19:18:50.303Z,12.92
2023-01-01T19:21:22.474Z,12.89
2023-01-01T19:23:55.894Z,12.95
2023-01-01T19:26:26.769Z,13.05
2023-01-01T19:28:56.171Z,12.95
2023-01-01T19:31:23.251Z,12.95
2023-01-01T19:33:49.988Z,13.02
2023-01-01T19:36:16.420Z,13.01
2023-01-01T19:38:44.087Z,13.05
2023-01-01T19:41:10.844Z,12.90
2023-01-01T19:43:37.776Z,12.92
2023-01-01T19:46:04.302Z,12.90
2023-01-01T19:48:30.778Z,12.93
2023-01-01T19:50:57.911Z,12.87
2023-01-01T19:53:24.310Z,12.89
2023-01-01T19:55:50.663Z,12.90
2023-01-01T19:58:19.896Z,12.74
2023-01-01T20:00:46.407Z,12.75
2023-01-01T20:03:52.373Z,12.78
2023-01-01T20:05:59.454Z,12.80
2023-01-01T20:08:26.947Z,12.73
2023-01-01T20:10:53.237Z,12.66
2023-01-01T20:13:19.626Z,12.61
2023-01-01T20:15:46.992Z,12.73
2023-01-01T20:18:13.492Z,12.64
2023-01-01T20:20:59.842Z,12.65
2023-01-01T20:23:26.196Z,12.65
2023-01-01T20:25:52.558Z,12.73
2023-01-01T20:28:37.573Z,12.72
2023-01-01T20:31:03.989Z,12.80
2023-01-01T20:33:30.326Z,12.79
2023-01-01T20:36:15.112Z,12.75
2023-01-01T20:38:41.536Z,12.72
2023-01-01T20:41:25.943Z,12.68
2023-01-01T20:43:58.925Z,12.68
2023-01-01T20:46:25.911Z,12.62
2023-01-01T20:48:53.450Z,12.60
2023-01-01T20:51:19.706Z,12.54
2023-01-01T20:53:46.059Z,12.69
2023-01-01T20:56:12.514Z,12.77
2023-01-01T20:58:44.265Z,12.73
2023-01-01T21:01:14.406Z,12.56
2023-01-01T21:03:40.837Z,12.68
2023-01-01T21:06:07.259Z,12.60
2023-01-01T21:08:33.633Z,12.53
2023-01-01T21:10:59.961Z,12.58
2023-01-01T21:13:26.470Z,12.64
2023-01-01T21:15:55.020Z,12.61
2023-01-01T21:18:21.530Z,12.65
2023-01-01T21:20:48.806Z,12.61
2023-01-01T21:23:21.772Z,12.63
2023-01-01T21:25:51.749Z,12.66
2023-01-01T21:28:19.318Z,12.76
2023-01-01T21:30:51.410Z,12.71
2023-01-01T21:33:32.020Z,12.73
2023-01-01T21:36:04.809Z,12.69
2023-01-01T21:38:32.265Z,12.71
2023-01-01T21:40:59.547Z,12.70
2023-01-01T21:43:36.797Z,12.62
2023-01-01T21:46:18.270Z,12.64
2023-01-01T21:49:01.911Z,12.76
2023-01-01T21:51:46.044Z,12.66
2023-01-01T21:54:12.499Z,12.72
2023-01-01T21:56:40.164Z,12.67
2023-01-01T21:59:27.669Z,12.68
2023-01-01T22:02:06.303Z,12.64
2023-01-01T22:04:45.876Z,12.68
2023-01-01T22:10:14.376Z,12.72
2023-01-01T22:12:41.261Z,12.70
2023-01-01T22:15:29.855Z,12.68
2023-01-01T22:18:05.607Z,12.62
2023-01-01T22:20:34.456Z,12.62
2023-01-01T22:23:05.360Z,12.54
2023-01-01T22:25:32.713Z,12.56
2023-01-01T22:28:12.077Z,12.55
2023-01-01T22:30:42.913Z,12.47
2023-01-01T22:33:17.941Z,12.36
2023-01-01T22:35:45.273Z,12.33
2023-01-01T22:38:19.321Z,12.35
2023-01-01T22:40:50.364Z,12.30
2023-01-01T22:43:27.620Z,12.29
2023-01-01T22:45:54.229Z,12.26
2023-01-01T22:48:29.280Z,12.23
2023-01-01T22:50:56.552Z,12.21
2023-01-01T22:53:22.919Z,12.19
2023-01-01T22:55:49.279Z,12.23
2023-01-01T22:58:15.772Z,12.17
2023-01-01T23:00:42.150Z,12.11
2023-01-01T23:03:08.685Z,12.20
2023-01-01T23:05:35.141Z,12.17
2023-01-01T23:08:01.489Z,12.18
2023-01-01T23:10:27.847Z,12.20
2023-01-01T23:12:54.312Z,12.22
2023-01-01T23:15:39.134Z,12.17
2023-01-01T23:18:05.703Z,12.05
2023-01-01T23:20:32.170Z,12.10
2023-01-01T23:22:58.835Z,12.04
2023-01-01T23:25:25.350Z,12.07
2023-01-01T23:27:52.561Z,12.00
2023-01-01T23:30:19.369Z,12.03
2023-01-01T23:32:46.375Z,12.02
2023-01-01T23:35:13.019Z,12.10
2023-01-01T23:37:39.635Z,12.12
2023-01-01T23:40:06.645Z,12.19
2023-01-01T23:42:33.111Z,12.20
2023-01-01T23:44:59.457Z,12.25
2023-01-01T23:47:25.837Z,12.26
2023-01-01T23:49:52.208Z,12.22
2023-01-01T23:52:18.596Z,12.21
2023-01-01T23:54:44.943Z,12.24
2023-01-01T23:57:11.369Z,12.27
2023-01-01T23:59:37.713Z,12.29
